< < Back
Terminal Aerodrome Forecast


Current Version              Previous Versions:   1  2  3  4  5  6  7  8  9  

Terminal Aerodrome Forecast

487
FTUS42 KCAE 011000 AAD
TAFCAE
TAF AMD
KCAE 011025Z 0110/0206 00000KT P6SM SCT002
      TEMPO 0110/0114 3SM BR BKN002
     FM011500 VRB04KT P6SM SCT250
     FM011700 14005KT P6SM SCT250=



Latest METAR

615
SAUS80 KWBC 011600 RRI
MTRCAE
METAR KCAE 011556Z 31004KT 10SM FEW045 FEW220 28/17 A3000 RMK AO2 SLP157
T02830167


USA.gov is the U.S. government's official web portal to all federal, state and local government web resources and services.